No.10 Hasshomaru — JD2992 — position and weather

sailwx.info

Track history (hours):
 
Tides and Currents Weather Stations Pressure Air Temp Water Temp Dewpoint Dewpoint Depression Visibility Wind Speed Wind Dir Waves Ship Positions

No.10 Hasshomaru

Last reported at 2014-Aug-22 20:31 UTC. Time now 2014-Aug-23 11:31 UTC.
Position N 36°01' E 141°00'.

Length 105 m; draft 6.6 m.

Type: Tanker. MMSI: 431001112.

Date/timePositionNaut miles runAvg speedWind from/ knotsBaromVisibWave heightAir tempDewpointWater temp
2014-Aug-22 20:31N 36°01' E 141°00'1313.1
2014-Aug-22 19:33N 35°48' E 140°58'1313.0
2014-Aug-22 18:33N 35°36' E 140°54'1313.2
2014-Aug-22 17:33N 35°25' E 140°44'1313.5
2014-Aug-22 16:34N 35°15' E 140°34'1414.0
2014-Aug-22 15:33N 35°04' E 140°23'1515.1
2014-Aug-22 14:33N 34°56' E 140°07'1413.9
2014-Aug-22 13:33N 34°52' E 139°50'1211.8
2014-Aug-22 12:33N 35°03' E 139°45'1312.6
2014-Aug-22 11:33N 35°15' E 139°46'1010.4
2014-Aug-22 10:33N 35°24' E 139°40'0 0.1
2014-Aug-22 09:30N 35°24' E 139°40'0 0.0
2014-Aug-22 08:33N 35°24' E 139°40'0 0.0
2014-Aug-22 07:33N 35°24' E 139°40'0 0.0
2014-Aug-22 06:33N 35°24' E 139°40'0 0.0
2014-Aug-22 05:33N 35°24' E 139°40'0 0.0
2014-Aug-22 04:33N 35°24' E 139°40'0 0.0
2014-Aug-22 03:33N 35°24' E 139°40'0 0.0
2014-Aug-22 02:33N 35°24' E 139°40'2 1.6
2014-Aug-22 01:33N 35°23' E 139°41'1010.3
2014-Aug-22 00:34N 35°30' E 139°51'1212.4
2014-Aug-21 23:33N 35°40' E 139°59'0 0.4
2014-Aug-21 22:33N 35°41' E 139°59'0 0.0
2014-Aug-21 21:33N 35°41' E 139°59'0 0.0
2014-Aug-21 20:33N 35°41' E 139°59'0 0.0
2014-Aug-21 19:30N 35°41' E 139°59'0 0.0
2014-Aug-21 18:30N 35°41' E 139°59'0 0.0
2014-Aug-21 17:33N 35°41' E 139°59'0 0.0
2014-Aug-21 16:27N 35°41' E 139°59'0 0.0
2014-Aug-21 15:30N 35°41' E 139°59'0 0.0
2014-Aug-21 14:30N 35°41' E 139°59'0 0.0
2014-Aug-21 13:27N 35°41' E 139°59'0 0.0
2014-Aug-21 12:30N 35°41' E 139°59'0 0.0
2014-Aug-21 11:27N 35°41' E 139°59'0 0.0
2014-Aug-21 10:33N 35°41' E 139°59'0 0.0
2014-Aug-21 09:27N 35°41' E 139°59'0 0.0
2014-Aug-21 08:30N 35°41' E 139°59'0 0.0
2014-Aug-21 07:33N 35°41' E 139°59'0 0.0
2014-Aug-21 06:30N 35°41' E 139°59'3 3.1
2014-Aug-21 05:34N 35°38' E 139°59'1312.4
2014-Aug-21 04:33N 35°30' E 139°47'1 0.6
2014-Aug-21 03:32N 35°31' E 139°46'0 0.0
2014-Aug-21 02:32N 35°31' E 139°46'0 0.0
2014-Aug-21 01:32N 35°31' E 139°46'0 0.0
2014-Aug-21 00:29N 35°31' E 139°46'0 0.0
2014-Aug-20 23:32N 35°31' E 139°46'3 3.0
2014-Aug-20 22:33N 35°29' E 139°43'7 6.7
2014-Aug-20 21:33N 35°23' E 139°44'1 0.6
2014-Aug-20 20:32N 35°22' E 139°44'0 0.0
2014-Aug-20 19:32N 35°22' E 139°44'0 0.0
2014-Aug-20 18:32N 35°22' E 139°44'0 0.0
2014-Aug-20 17:32N 35°22' E 139°44'0 0.0
2014-Aug-20 16:32N 35°22' E 139°44'0 0.0
2014-Aug-20 15:32N 35°22' E 139°44'6 6.0
2014-Aug-20 14:34N 35°16' E 139°46'1312.5
2014-Aug-20 13:33N 35°04' E 139°42'1514.7
2014-Aug-20 12:33N 34°55' E 139°28'1814.9
2014-Aug-20 11:20N 34°43' E 139°11'3013.6
2014-Aug-20 09:07N 34°31' E 138°37'19012.2
2014-Aug-19 17:32N 34°02' E 134°50'10812.0
2014-Aug-19 08:33N 34°05' E 132°40'1212.3
2014-Aug-19 07:33N 34°04' E 132°25'12 1.5
2014-Aug-18 23:21N 34°12' E 132°15'7 1.8
2014-Aug-18 19:33N 34°07' E 132°21'1413.9
2014-Aug-18 18:33N 33°55' E 132°30'  
Track history (hours):
 
Tides and Currents Weather Stations Pressure Air Temp Water Temp Dewpoint Dewpoint Depression Visibility Wind Speed Wind Dir Waves Ship Positions

No.10 Hasshomaru

Last reported at 2014-Aug-22 20:31 UTC. Time now 2014-Aug-23 11:31 UTC.
Position N 36°01' E 141°00'.

Length 105 m; draft 6.6 m.

Type: Tanker. MMSI: 431001112.

Date/timePositionNaut miles runAvg speedWind from/ knotsBaromVisibWave heightAir tempDewpointWater temp
2014-Aug-22 20:31N 36°01' E 141°00'1313.1
2014-Aug-22 19:33N 35°48' E 140°58'1313.0
2014-Aug-22 18:33N 35°36' E 140°54'1313.2
2014-Aug-22 17:33N 35°25' E 140°44'1313.5
2014-Aug-22 16:34N 35°15' E 140°34'1414.0
2014-Aug-22 15:33N 35°04' E 140°23'1515.1
2014-Aug-22 14:33N 34°56' E 140°07'1413.9
2014-Aug-22 13:33N 34°52' E 139°50'1211.8
2014-Aug-22 12:33N 35°03' E 139°45'1312.6
2014-Aug-22 11:33N 35°15' E 139°46'1010.4
2014-Aug-22 10:33N 35°24' E 139°40'0 0.1
2014-Aug-22 09:30N 35°24' E 139°40'0 0.0
2014-Aug-22 08:33N 35°24' E 139°40'0 0.0
2014-Aug-22 07:33N 35°24' E 139°40'0 0.0
2014-Aug-22 06:33N 35°24' E 139°40'0 0.0
2014-Aug-22 05:33N 35°24' E 139°40'0 0.0
2014-Aug-22 04:33N 35°24' E 139°40'0 0.0
2014-Aug-22 03:33N 35°24' E 139°40'0 0.0
2014-Aug-22 02:33N 35°24' E 139°40'2 1.6
2014-Aug-22 01:33N 35°23' E 139°41'1010.3
2014-Aug-22 00:34N 35°30' E 139°51'1212.4
2014-Aug-21 23:33N 35°40' E 139°59'0 0.4
2014-Aug-21 22:33N 35°41' E 139°59'0 0.0
2014-Aug-21 21:33N 35°41' E 139°59'0 0.0
2014-Aug-21 20:33N 35°41' E 139°59'0 0.0
2014-Aug-21 19:30N 35°41' E 139°59'0 0.0
2014-Aug-21 18:30N 35°41' E 139°59'0 0.0
2014-Aug-21 17:33N 35°41' E 139°59'0 0.0
2014-Aug-21 16:27N 35°41' E 139°59'0 0.0
2014-Aug-21 15:30N 35°41' E 139°59'0 0.0
2014-Aug-21 14:30N 35°41' E 139°59'0 0.0
2014-Aug-21 13:27N 35°41' E 139°59'0 0.0
2014-Aug-21 12:30N 35°41' E 139°59'0 0.0
2014-Aug-21 11:27N 35°41' E 139°59'0 0.0
2014-Aug-21 10:33N 35°41' E 139°59'0 0.0
2014-Aug-21 09:27N 35°41' E 139°59'0 0.0
2014-Aug-21 08:30N 35°41' E 139°59'0 0.0
2014-Aug-21 07:33N 35°41' E 139°59'0 0.0
2014-Aug-21 06:30N 35°41' E 139°59'3 3.1
2014-Aug-21 05:34N 35°38' E 139°59'1312.4
2014-Aug-21 04:33N 35°30' E 139°47'1 0.6
2014-Aug-21 03:32N 35°31' E 139°46'0 0.0
2014-Aug-21 02:32N 35°31' E 139°46'0 0.0
2014-Aug-21 01:32N 35°31' E 139°46'0 0.0
2014-Aug-21 00:29N 35°31' E 139°46'0 0.0
2014-Aug-20 23:32N 35°31' E 139°46'3 3.0
2014-Aug-20 22:33N 35°29' E 139°43'7 6.7
2014-Aug-20 21:33N 35°23' E 139°44'1 0.6
2014-Aug-20 20:32N 35°22' E 139°44'0 0.0
2014-Aug-20 19:32N 35°22' E 139°44'0 0.0
2014-Aug-20 18:32N 35°22' E 139°44'0 0.0
2014-Aug-20 17:32N 35°22' E 139°44'0 0.0
2014-Aug-20 16:32N 35°22' E 139°44'0 0.0
2014-Aug-20 15:32N 35°22' E 139°44'6 6.0
2014-Aug-20 14:34N 35°16' E 139°46'1312.5
2014-Aug-20 13:33N 35°04' E 139°42'1514.7
2014-Aug-20 12:33N 34°55' E 139°28'1814.9
2014-Aug-20 11:20N 34°43' E 139°11'3013.6
2014-Aug-20 09:07N 34°31' E 138°37'19012.2
2014-Aug-19 17:32N 34°02' E 134°50'10812.0
2014-Aug-19 08:33N 34°05' E 132°40'1212.3
2014-Aug-19 07:33N 34°04' E 132°25'12 1.5
2014-Aug-18 23:21N 34°12' E 132°15'7 1.8
2014-Aug-18 19:33N 34°07' E 132°21'1413.9
2014-Aug-18 18:33N 33°55' E 132°30'  

Dump ship's entire track history